sensor_id;sensor_type;location;lat;lon;timestamp;pressure;altitude;pressure_sealevel;temperature;humidity
62655;BME280;48717;55.556;37.816;2023-01-27T00:00:53;99737.03;;;-4.79;99.23
62655;BME280;48717;55.556;37.816;2023-01-27T00:03:20;99741.09;;;-4.83;99.11
62655;BME280;48717;55.556;37.816;2023-01-27T00:05:48;99712.06;;;-4.95;99.82
62655;BME280;48717;55.556;37.816;2023-01-27T00:08:16;99735.97;;;-4.83;98.78
62655;BME280;48717;55.556;37.816;2023-01-27T00:10:43;99711.00;;;-4.99;98.75
62655;BME280;48717;55.556;37.816;2023-01-27T00:13:12;99693.78;;;-5.15;99.35
62655;BME280;48717;55.556;37.816;2023-01-27T00:15:57;99731.31;;;-5.04;99.86
62655;BME280;48717;55.556;37.816;2023-01-27T00:18:25;99743.75;;;-4.96;99.06
62655;BME280;48717;55.556;37.816;2023-01-27T00:20:52;99707.44;;;-5.16;99.63
62655;BME280;48717;55.556;37.816;2023-01-27T00:23:38;99766.47;;;-4.89;99.37
62655;BME280;48717;55.556;37.816;2023-01-27T00:26:23;99732.50;;;-4.99;98.92
62655;BME280;48717;55.556;37.816;2023-01-27T00:28:51;99752.47;;;-4.94;99.80
62655;BME280;48717;55.556;37.816;2023-01-27T00:31:18;99752.06;;;-5.01;99.75
62655;BME280;48717;55.556;37.816;2023-01-27T00:34:04;99715.16;;;-5.16;99.96
62655;BME280;48717;55.556;37.816;2023-01-27T00:36:40;99746.94;;;-5.01;100.00
62655;BME280;48717;55.556;37.816;2023-01-27T00:39:09;99719.75;;;-5.26;100.00
62655;BME280;48717;55.556;37.816;2023-01-27T00:41:38;99706.25;;;-5.21;99.29
62655;BME280;48717;55.556;37.816;2023-01-27T00:44:06;99662.59;;;-5.50;100.00
62655;BME280;48717;55.556;37.816;2023-01-27T00:46:40;99731.22;;;-5.05;100.00
62655;BME280;48717;55.556;37.816;2023-01-27T00:49:12;99708.47;;;-5.28;99.97
62655;BME280;48717;55.556;37.816;2023-01-27T00:51:39;99716.53;;;-5.21;100.00
62655;BME280;48717;55.556;37.816;2023-01-27T00:54:07;99661.25;;;-5.58;100.00
62655;BME280;48717;55.556;37.816;2023-01-27T00:56:37;99726.81;;;-5.21;100.00
62655;BME280;48717;55.556;37.816;2023-01-27T00:59:04;99698.59;;;-5.35;100.00
62655;BME280;48717;55.556;37.816;2023-01-27T01:01:32;99628.41;;;-5.78;100.00
62655;BME280;48717;55.556;37.816;2023-01-27T01:04:00;99725.25;;;-5.19;100.00
62655;BME280;48717;55.556;37.816;2023-01-27T01:06:27;99693.09;;;-5.41;100.00
62655;BME280;48717;55.556;37.816;2023-01-27T01:08:56;99725.84;;;-5.24;100.00
62655;BME280;48717;55.556;37.816;2023-01-27T01:11:24;99720.63;;;-5.25;100.00
62655;BME280;48717;55.556;37.816;2023-01-27T01:13:52;99720.34;;;-5.30;100.00
62655;BME280;48717;55.556;37.816;2023-01-27T01:16:23;99727.25;;;-5.29;100.00
62655;BME280;48717;55.556;37.816;2023-01-27T01:18:51;99715.97;;;-5.31;100.00
62655;BME280;48717;55.556;37.816;2023-01-27T01:21:19;99723.78;;;-5.29;100.00
62655;BME280;48717;55.556;37.816;2023-01-27T01:23:46;99691.53;;;-5.53;100.00
62655;BME280;48717;55.556;37.816;2023-01-27T01:26:14;99724.31;;;-5.35;100.00
62655;BME280;48717;55.556;37.816;2023-01-27T01:28:43;99714.22;;;-5.32;100.00
62655;BME280;48717;55.556;37.816;2023-01-27T01:31:14;99707.22;;;-5.34;100.00
62655;BME280;48717;55.556;37.816;2023-01-27T01:33:41;99715.81;;;-5.34;100.00
62655;BME280;48717;55.556;37.816;2023-01-27T01:36:10;99719.16;;;-5.35;100.00
62655;BME280;48717;55.556;37.816;2023-01-27T01:38:38;99702.81;;;-5.51;100.00
62655;BME280;48717;55.556;37.816;2023-01-27T01:41:06;99717.28;;;-5.38;100.00
62655;BME280;48717;55.556;37.816;2023-01-27T01:43:34;99685.44;;;-5.55;100.00
62655;BME280;48717;55.556;37.816;2023-01-27T01:46:03;99719.00;;;-5.38;100.00
62655;BME280;48717;55.556;37.816;2023-01-27T01:48:33;99717.03;;;-5.42;100.00
62655;BME280;48717;55.556;37.816;2023-01-27T01:51:19;99722.28;;;-5.41;100.00
62655;BME280;48717;55.556;37.816;2023-01-27T01:53:59;99704.78;;;-5.46;100.00
62655;BME280;48717;55.556;37.816;2023-01-27T01:59:26;99708.84;;;-5.50;100.00
62655;BME280;48717;55.556;37.816;2023-01-27T02:01:57;99702.22;;;-5.46;100.00
62655;BME280;48717;55.556;37.816;2023-01-27T02:04:31;99703.00;;;-5.47;100.00
62655;BME280;48717;55.556;37.816;2023-01-27T02:07:06;99696.88;;;-5.50;100.00
62655;BME280;48717;55.556;37.816;2023-01-27T02:09:37;99679.13;;;-5.60;100.00
62655;BME280;48717;55.556;37.816;2023-01-27T02:12:05;99714.50;;;-5.56;100.00
62655;BME280;48717;55.556;37.816;2023-01-27T02:14:36;99708.19;;;-5.61;100.00
62655;BME280;48717;55.556;37.816;2023-01-27T02:17:23;99693.53;;;-5.62;100.00
62655;BME280;48717;55.556;37.816;2023-01-27T02:27:51;99661.09;;;-5.75;100.00
62655;BME280;48717;55.556;37.816;2023-01-27T02:30:19;99691.78;;;-5.63;100.00
62655;BME280;48717;55.556;37.816;2023-01-27T02:32:46;99675.59;;;-5.76;100.00
62655;BME280;48717;55.556;37.816;2023-01-27T02:35:18;99690.88;;;-5.64;100.00
62655;BME280;48717;55.556;37.816;2023-01-27T02:37:49;99688.41;;;-5.62;100.00
62655;BME280;48717;55.556;37.816;2023-01-27T02:40:17;99607.88;;;-6.06;100.00
62655;BME280;48717;55.556;37.816;2023-01-27T02:42:45;99629.84;;;-5.96;100.00
62655;BME280;48717;55.556;37.816;2023-01-27T02:45:12;99645.00;;;-5.86;100.00
62655;BME280;48717;55.556;37.816;2023-01-27T02:47:39;99665.16;;;-5.79;100.00
62655;BME280;48717;55.556;37.816;2023-01-27T02:50:07;99680.53;;;-5.65;100.00
62655;BME280;48717;55.556;37.816;2023-01-27T02:52:34;99685.84;;;-5.62;100.00
62655;BME280;48717;55.556;37.816;2023-01-27T02:55:02;99605.78;;;-6.12;100.00
62655;BME280;48717;55.556;37.816;2023-01-27T02:57:31;99689.09;;;-5.65;100.00
62655;BME280;48717;55.556;37.816;2023-01-27T03:00:18;99644.22;;;-5.85;100.00
62655;BME280;48717;55.556;37.816;2023-01-27T03:02:46;99619.91;;;-6.05;100.00
62655;BME280;48717;55.556;37.816;2023-01-27T03:05:14;99573.44;;;-6.23;100.00
62655;BME280;48717;55.556;37.816;2023-01-27T03:10:53;99679.34;;;-5.70;100.00
62655;BME280;48717;55.556;37.816;2023-01-27T03:13:25;99544.09;;;-6.56;100.00
62655;BME280;48717;55.556;37.816;2023-01-27T03:15:57;99533.44;;;-6.62;100.00
62655;BME280;48717;55.556;37.816;2023-01-27T03:19:05;99656.78;;;-5.90;100.00
62655;BME280;48717;55.556;37.816;2023-01-27T03:21:34;99601.59;;;-6.25;99.91
62655;BME280;48717;55.556;37.816;2023-01-27T03:24:01;99689.25;;;-5.77;100.00
62655;BME280;48717;55.556;37.816;2023-01-27T03:43:20;99573.47;;;-6.50;100.00
62655;BME280;48717;55.556;37.816;2023-01-27T03:46:07;99681.16;;;-5.83;99.53
62655;BME280;48717;55.556;37.816;2023-01-27T03:48:50;99653.53;;;-6.00;99.66
62655;BME280;48717;55.556;37.816;2023-01-27T03:51:19;99655.13;;;-6.03;99.48
62655;BME280;48717;55.556;37.816;2023-01-27T03:53:47;99665.78;;;-5.96;99.39
62655;BME280;48717;55.556;37.816;2023-01-27T03:56:16;99593.00;;;-6.39;99.26
62655;BME280;48717;55.556;37.816;2023-01-27T03:58:43;99671.50;;;-5.87;99.58
62655;BME280;48717;55.556;37.816;2023-01-27T04:01:13;99701.28;;;-5.76;99.08
62655;BME280;48717;55.556;37.816;2023-01-27T04:03:42;99685.09;;;-5.74;99.38
62655;BME280;48717;55.556;37.816;2023-01-27T04:06:30;99675.22;;;-5.82;98.97
62655;BME280;48717;55.556;37.816;2023-01-27T04:09:23;99617.84;;;-6.24;99.13
62655;BME280;48717;55.556;37.816;2023-01-27T04:11:51;99682.34;;;-5.78;99.32
62655;BME280;48717;55.556;37.816;2023-01-27T04:14:26;99701.50;;;-5.72;98.53
62655;BME280;48717;55.556;37.816;2023-01-27T04:16:59;99672.38;;;-5.86;98.55
62655;BME280;48717;55.556;37.816;2023-01-27T04:19:28;99696.44;;;-5.71;98.66
62655;BME280;48717;55.556;37.816;2023-01-27T04:21:57;99689.03;;;-5.80;98.66
62655;BME280;48717;55.556;37.816;2023-01-27T04:24:25;99689.44;;;-5.73;99.23
62655;BME280;48717;55.556;37.816;2023-01-27T04:27:03;99675.81;;;-5.86;99.08
62655;BME280;48717;55.556;37.816;2023-01-27T04:29:34;99570.31;;;-6.46;98.32
62655;BME280;48717;55.556;37.816;2023-01-27T04:32:03;99696.72;;;-5.66;98.97
62655;BME280;48717;55.556;37.816;2023-01-27T04:34:32;99700.28;;;-5.64;98.21
62655;BME280;48717;55.556;37.816;2023-01-27T04:36:59;99700.28;;;-5.64;98.75
62655;BME280;48717;55.556;37.816;2023-01-27T04:39:29;99657.38;;;-5.94;98.33
62655;BME280;48717;55.556;37.816;2023-01-27T04:41:56;99698.59;;;-5.64;98.24
62655;BME280;48717;55.556;37.816;2023-01-27T04:44:24;99667.44;;;-5.83;97.88
62655;BME280;48717;55.556;37.816;2023-01-27T04:46:51;99710.56;;;-5.64;98.42
62655;BME280;48717;55.556;37.816;2023-01-27T04:49:20;99701.00;;;-5.67;98.61
62655;BME280;48717;55.556;37.816;2023-01-27T04:51:47;99666.53;;;-5.84;98.53
62655;BME280;48717;55.556;37.816;2023-01-27T04:54:15;99704.94;;;-5.72;97.93
62655;BME280;48717;55.556;37.816;2023-01-27T04:56:58;99713.03;;;-5.66;97.89
62655;BME280;48717;55.556;37.816;2023-01-27T04:59:26;99722.81;;;-5.60;97.82
62655;BME280;48717;55.556;37.816;2023-01-27T05:01:53;99692.59;;;-5.78;98.13
62655;BME280;48717;55.556;37.816;2023-01-27T05:04:20;99684.31;;;-5.73;97.69
62655;BME280;48717;55.556;37.816;2023-01-27T05:06:47;99698.91;;;-5.72;97.39
62655;BME280;48717;55.556;37.816;2023-01-27T05:09:15;99716.06;;;-5.58;97.77
62655;BME280;48717;55.556;37.816;2023-01-27T05:11:42;99700.78;;;-5.70;97.24
62655;BME280;48717;55.556;37.816;2023-01-27T05:14:10;99691.22;;;-5.72;96.98
62655;BME280;48717;55.556;37.816;2023-01-27T05:16:38;99704.03;;;-5.59;97.22
62655;BME280;48717;55.556;37.816;2023-01-27T05:19:05;99699.69;;;-5.60;97.80
62655;BME280;48717;55.556;37.816;2023-01-27T05:21:33;99717.44;;;-5.50;97.75
62655;BME280;48717;55.556;37.816;2023-01-27T05:24:01;99660.81;;;-5.93;97.73
62655;BME280;48717;55.556;37.816;2023-01-27T05:26:29;99728.31;;;-5.54;97.15
62655;BME280;48717;55.556;37.816;2023-01-27T05:28:57;99730.28;;;-5.50;97.62
62655;BME280;48717;55.556;37.816;2023-01-27T05:31:27;99729.91;;;-5.56;97.86
62655;BME280;48717;55.556;37.816;2023-01-27T05:33:55;99694.59;;;-5.73;96.92
62655;BME280;48717;55.556;37.816;2023-01-27T05:36:25;99740.56;;;-5.50;96.83
62655;BME280;48717;55.556;37.816;2023-01-27T05:38:53;99713.22;;;-5.63;96.91
62655;BME280;48717;55.556;37.816;2023-01-27T05:41:21;99724.28;;;-5.50;97.05
62655;BME280;48717;55.556;37.816;2023-01-27T05:43:53;99748.56;;;-5.45;97.13
62655;BME280;48717;55.556;37.816;2023-01-27T05:46:25;99725.53;;;-5.57;96.53
62655;BME280;48717;55.556;37.816;2023-01-27T05:48:54;99745.91;;;-5.46;96.90
62655;BME280;48717;55.556;37.816;2023-01-27T05:51:23;99745.09;;;-5.45;96.49
62655;BME280;48717;55.556;37.816;2023-01-27T05:53:51;99742.53;;;-5.45;97.39
62655;BME280;48717;55.556;37.816;2023-01-27T05:56:19;99733.44;;;-5.54;96.47
62655;BME280;48717;55.556;37.816;2023-01-27T05:58:46;99752.09;;;-5.43;96.40
62655;BME280;48717;55.556;37.816;2023-01-27T06:01:19;99753.00;;;-5.42;96.94
62655;BME280;48717;55.556;37.816;2023-01-27T06:03:47;99746.78;;;-5.46;96.02
62655;BME280;48717;55.556;37.816;2023-01-27T06:06:16;99761.97;;;-5.35;96.10
62655;BME280;48717;55.556;37.816;2023-01-27T06:08:45;99696.34;;;-5.72;97.24
62655;BME280;48717;55.556;37.816;2023-01-27T06:11:13;99749.63;;;-5.41;96.87
62655;BME280;48717;55.556;37.816;2023-01-27T06:13:41;99749.03;;;-5.37;96.08
62655;BME280;48717;55.556;37.816;2023-01-27T06:16:10;99753.47;;;-5.34;96.96
62655;BME280;48717;55.556;37.816;2023-01-27T06:18:38;99734.44;;;-5.52;95.85
62655;BME280;48717;55.556;37.816;2023-01-27T06:21:08;99758.72;;;-5.33;96.77
62655;BME280;48717;55.556;37.816;2023-01-27T06:23:36;99747.88;;;-5.42;95.97
62655;BME280;48717;55.556;37.816;2023-01-27T06:26:09;99706.59;;;-5.59;96.34
62655;BME280;48717;55.556;37.816;2023-01-27T06:28:37;99760.47;;;-5.32;96.24
62655;BME280;48717;55.556;37.816;2023-01-27T06:33:36;99720.91;;;-5.49;95.50
62655;BME280;48717;55.556;37.816;2023-01-27T06:36:09;99766.88;;;-5.25;95.09
62655;BME280;48717;55.556;37.816;2023-01-27T06:38:36;99748.44;;;-5.33;95.95
62655;BME280;48717;55.556;37.816;2023-01-27T06:41:03;99753.94;;;-5.27;95.43
62655;BME280;48717;55.556;37.816;2023-01-27T06:43:31;99728.00;;;-5.45;96.02
62655;BME280;48717;55.556;37.816;2023-01-27T06:45:58;99769.91;;;-5.17;94.53
62655;BME280;48717;55.556;37.816;2023-01-27T06:48:26;99734.59;;;-5.35;95.26
62655;BME280;48717;55.556;37.816;2023-01-27T06:50:55;99761.44;;;-5.16;94.58
62655;BME280;48717;55.556;37.816;2023-01-27T06:53:23;99756.47;;;-5.13;94.27
62655;BME280;48717;55.556;37.816;2023-01-27T06:55:57;99725.41;;;-5.31;95.20
62655;BME280;48717;55.556;37.816;2023-01-27T06:58:25;99737.09;;;-5.21;95.18
62655;BME280;48717;55.556;37.816;2023-01-27T07:00:53;99733.56;;;-5.24;94.25
62655;BME280;48717;55.556;37.816;2023-01-27T07:03:21;99761.28;;;-5.04;93.50
62655;BME280;48717;55.556;37.816;2023-01-27T07:05:48;99769.88;;;-5.04;94.14
62655;BME280;48717;55.556;37.816;2023-01-27T07:08:16;99764.72;;;-5.04;94.27
62655;BME280;48717;55.556;37.816;2023-01-27T07:10:43;99759.13;;;-5.12;93.92
62655;BME280;48717;55.556;37.816;2023-01-27T07:13:12;99763.16;;;-5.02;94.00
62655;BME280;48717;55.556;37.816;2023-01-27T07:15:40;99755.94;;;-5.07;94.18
62655;BME280;48717;55.556;37.816;2023-01-27T07:18:09;99752.06;;;-5.01;93.57
62655;BME280;48717;55.556;37.816;2023-01-27T07:20:36;99753.94;;;-4.98;93.78
62655;BME280;48717;55.556;37.816;2023-01-27T07:23:04;99739.66;;;-5.08;93.44
62655;BME280;48717;55.556;37.816;2023-01-27T07:25:33;99768.06;;;-4.91;92.61
62655;BME280;48717;55.556;37.816;2023-01-27T07:28:01;99760.59;;;-5.02;93.23
62655;BME280;48717;55.556;37.816;2023-01-27T07:30:29;99785.25;;;-4.90;92.71
62655;BME280;48717;55.556;37.816;2023-01-27T07:35:31;99758.63;;;-5.06;92.93
62655;BME280;48717;55.556;37.816;2023-01-27T07:37:58;99766.47;;;-4.89;93.71
62655;BME280;48717;55.556;37.816;2023-01-27T07:40:25;99776.06;;;-4.87;93.73
62655;BME280;48717;55.556;37.816;2023-01-27T07:42:52;99741.06;;;-4.98;93.03
62655;BME280;48717;55.556;37.816;2023-01-27T07:45:19;99770.13;;;-4.86;93.30
62655;BME280;48717;55.556;37.816;2023-01-27T07:47:46;99766.09;;;-4.95;93.73
62655;BME280;48717;55.556;37.816;2023-01-27T07:50:13;99760.22;;;-5.08;95.58
62655;BME280;48717;55.556;37.816;2023-01-27T07:52:41;99766.44;;;-5.04;95.18
62655;BME280;48717;55.556;37.816;2023-01-27T07:55:08;99759.53;;;-5.05;95.96
62655;BME280;48717;55.556;37.816;2023-01-27T07:57:35;99797.69;;;-4.83;94.96
62655;BME280;48717;55.556;37.816;2023-01-27T08:00:03;99809.97;;;-4.79;95.09
62655;BME280;48717;55.556;37.816;2023-01-27T08:02:38;99781.72;;;-4.92;94.52
62655;BME280;48717;55.556;37.816;2023-01-27T08:05:05;99761.84;;;-4.95;94.76
62655;BME280;48717;55.556;37.816;2023-01-27T08:07:32;99778.72;;;-4.85;95.56
62655;BME280;48717;55.556;37.816;2023-01-27T08:09:59;99797.03;;;-4.65;94.57
62655;BME280;48717;55.556;37.816;2023-01-27T08:12:28;99764.97;;;-4.86;95.34
62655;BME280;48717;55.556;37.816;2023-01-27T08:14:56;99793.59;;;-4.66;95.77
62655;BME280;48717;55.556;37.816;2023-01-27T08:17:22;99765.31;;;-4.79;95.80
62655;BME280;48717;55.556;37.816;2023-01-27T08:19:49;99797.22;;;-4.62;94.88
62655;BME280;48717;55.556;37.816;2023-01-27T08:22:18;99756.94;;;-4.77;95.20
62655;BME280;48717;55.556;37.816;2023-01-27T08:24:48;99791.28;;;-4.61;94.48
62655;BME280;48717;55.556;37.816;2023-01-27T08:27:16;99788.50;;;-4.64;95.63
62655;BME280;48717;55.556;37.816;2023-01-27T08:29:43;99783.19;;;-4.67;94.77
62655;BME280;48717;55.556;37.816;2023-01-27T08:32:10;99793.13;;;-4.59;94.69
62655;BME280;48717;55.556;37.816;2023-01-27T08:34:40;99790.31;;;-4.63;94.73
62655;BME280;48717;55.556;37.816;2023-01-27T08:37:08;99812.41;;;-4.52;94.38
62655;BME280;48717;55.556;37.816;2023-01-27T08:39:35;99813.00;;;-4.56;94.36
62655;BME280;48717;55.556;37.816;2023-01-27T08:42:02;99810.34;;;-4.57;95.22
62655;BME280;48717;55.556;37.816;2023-01-27T08:44:29;99770.75;;;-4.75;95.30
62655;BME280;48717;55.556;37.816;2023-01-27T08:46:56;99807.72;;;-4.59;94.95
62655;BME280;48717;55.556;37.816;2023-01-27T08:49:23;99795.44;;;-4.63;95.65
62655;BME280;48717;55.556;37.816;2023-01-27T08:51:50;99806.28;;;-4.54;96.30
62655;BME280;48717;55.556;37.816;2023-01-27T08:54:17;99810.81;;;-4.50;96.45
62655;BME280;48717;55.556;37.816;2023-01-27T08:56:44;99782.41;;;-4.66;95.88
62655;BME280;48717;55.556;37.816;2023-01-27T08:59:11;99803.97;;;-4.49;95.83
62655;BME280;48717;55.556;37.816;2023-01-27T09:01:38;99800.25;;;-4.54;96.94
62655;BME280;48717;55.556;37.816;2023-01-27T09:04:07;99762.63;;;-4.67;97.44
62655;BME280;48717;55.556;37.816;2023-01-27T09:06:34;99808.41;;;-4.47;97.30
62655;BME280;48717;55.556;37.816;2023-01-27T09:09:01;99810.56;;;-4.39;97.66
62655;BME280;48717;55.556;37.816;2023-01-27T09:11:40;99806.22;;;-4.40;96.98
62655;BME280;48717;55.556;37.816;2023-01-27T09:14:08;99805.06;;;-4.46;97.61
62655;BME280;48717;55.556;37.816;2023-01-27T09:16:36;99802.91;;;-4.53;96.44
62655;BME280;48717;55.556;37.816;2023-01-27T09:19:03;99793.06;;;-4.45;96.12
62655;BME280;48717;55.556;37.816;2023-01-27T09:21:30;99792.25;;;-4.44;95.77
62655;BME280;48717;55.556;37.816;2023-01-27T09:23:57;99739.69;;;-4.78;96.56
62655;BME280;48717;55.556;37.816;2023-01-27T09:26:25;99803.13;;;-4.35;95.91
62655;BME280;48717;55.556;37.816;2023-01-27T09:28:52;99808.28;;;-4.35;97.22
62655;BME280;48717;55.556;37.816;2023-01-27T09:31:19;99743.78;;;-4.66;96.65
62655;BME280;48717;55.556;37.816;2023-01-27T09:33:46;99769.44;;;-4.53;96.61
62655;BME280;48717;55.556;37.816;2023-01-27T09:36:17;99804.97;;;-4.32;97.01
62655;BME280;48717;55.556;37.816;2023-01-27T09:38:55;99799.03;;;-4.31;97.18
62655;BME280;48717;55.556;37.816;2023-01-27T09:44:29;99800.97;;;-4.27;97.10
62655;BME280;48717;55.556;37.816;2023-01-27T09:55:49;99799.56;;;-4.22;96.40
62655;BME280;48717;55.556;37.816;2023-01-27T10:04:04;99781.72;;;-4.18;96.75
62655;BME280;48717;55.556;37.816;2023-01-27T10:18:01;99783.72;;;-3.98;96.25
62655;BME280;48717;55.556;37.816;2023-01-27T10:26:41;99771.13;;;-4.08;95.38
62655;BME280;48717;55.556;37.816;2023-01-27T10:29:22;99800.97;;;-3.97;95.53
62655;BME280;48717;55.556;37.816;2023-01-27T10:31:57;99767.41;;;-4.13;95.64
62655;BME280;48717;55.556;37.816;2023-01-27T10:34:44;99779.19;;;-4.02;95.88
62655;BME280;48717;55.556;37.816;2023-01-27T10:37:18;99791.53;;;-3.96;94.25
62655;BME280;48717;55.556;37.816;2023-01-27T10:40:05;99797.94;;;-3.89;94.69
62655;BME280;48717;55.556;37.816;2023-01-27T10:46:15;99801.59;;;-3.86;94.93
62655;BME280;48717;55.556;37.816;2023-01-27T10:48:20;99808.75;;;-3.80;95.57
62655;BME280;48717;55.556;37.816;2023-01-27T10:51:14;99807.00;;;-3.81;94.55
62655;BME280;48717;55.556;37.816;2023-01-27T10:56:20;99789.94;;;-3.79;95.62
62655;BME280;48717;55.556;37.816;2023-01-27T11:04:39;99804.78;;;-3.75;95.25
62655;BME280;48717;55.556;37.816;2023-01-27T11:07:19;99811.84;;;-3.71;94.12
62655;BME280;48717;55.556;37.816;2023-01-27T11:10:17;99811.06;;;-3.70;95.09
62655;BME280;48717;55.556;37.816;2023-01-27T11:12:48;99823.34;;;-3.65;94.11
62655;BME280;48717;55.556;37.816;2023-01-27T11:15:29;99814.31;;;-3.57;94.79
62655;BME280;48717;55.556;37.816;2023-01-27T11:18:03;99813.53;;;-3.56;93.88
62655;BME280;48717;55.556;37.816;2023-01-27T11:20:55;99808.91;;;-3.62;94.14
62655;BME280;48717;55.556;37.816;2023-01-27T11:23:28;99768.97;;;-3.85;94.34
62655;BME280;48717;55.556;37.816;2023-01-27T11:29:22;99808.28;;;-3.58;93.27
62655;BME280;48717;55.556;37.816;2023-01-27T11:35:11;99781.59;;;-3.75;93.85
62655;BME280;48717;55.556;37.816;2023-01-27T11:37:41;99811.41;;;-3.63;94.43
62655;BME280;48717;55.556;37.816;2023-01-27T11:40:15;99812.94;;;-3.67;94.39
62655;BME280;48717;55.556;37.816;2023-01-27T11:42:44;99811.59;;;-3.60;94.03
62655;BME280;48717;55.556;37.816;2023-01-27T11:45:16;99810.69;;;-3.61;93.73
62655;BME280;48717;55.556;37.816;2023-01-27T11:47:46;99817.56;;;-3.61;94.02
62655;BME280;48717;55.556;37.816;2023-01-27T11:50:15;99799.66;;;-3.58;93.69
62655;BME280;48717;55.556;37.816;2023-01-27T11:53:10;99757.25;;;-3.95;93.40
62655;BME280;48717;55.556;37.816;2023-01-27T11:55:50;99784.84;;;-3.77;94.01
62655;BME280;48717;55.556;37.816;2023-01-27T11:58:24;99810.69;;;-3.61;94.26
62655;BME280;48717;55.556;37.816;2023-01-27T12:01:12;99814.97;;;-3.61;93.86
62655;BME280;48717;55.556;37.816;2023-01-27T12:06:14;99812.31;;;-3.63;94.15
62655;BME280;48717;55.556;37.816;2023-01-27T12:08:46;99807.88;;;-3.65;93.86
62655;BME280;48717;55.556;37.816;2023-01-27T12:11:25;99829.53;;;-3.62;93.74
62655;BME280;48717;55.556;37.816;2023-01-27T12:13:57;99788.97;;;-3.81;93.97
62655;BME280;48717;55.556;37.816;2023-01-27T12:16:39;99779.38;;;-3.84;94.58
62655;BME280;48717;55.556;37.816;2023-01-27T12:19:42;99750.81;;;-4.03;94.86
62655;BME280;48717;55.556;37.816;2023-01-27T12:22:20;99793.88;;;-3.86;95.04
62655;BME280;48717;55.556;37.816;2023-01-27T12:24:53;99800.25;;;-3.79;95.12
62655;BME280;48717;55.556;37.816;2023-01-27T12:27:24;99839.75;;;-3.63;94.50
62655;BME280;48717;55.556;37.816;2023-01-27T12:29:55;99841.88;;;-3.56;94.56
62655;BME280;48717;55.556;37.816;2023-01-27T12:32:37;99832.03;;;-3.63;95.73
62655;BME280;48717;55.556;37.816;2023-01-27T12:35:24;99845.72;;;-3.64;95.01
62655;BME280;48717;55.556;37.816;2023-01-27T12:38:10;99785.69;;;-3.94;95.06
62655;BME280;48717;55.556;37.816;2023-01-27T12:40:43;99848.41;;;-3.63;94.81
62655;BME280;48717;55.556;37.816;2023-01-27T12:43:16;99848.41;;;-3.63;94.73
62655;BME280;48717;55.556;37.816;2023-01-27T12:46:02;99842.88;;;-3.69;95.78
62655;BME280;48717;55.556;37.816;2023-01-27T12:48:30;99844.72;;;-3.67;96.10
62655;BME280;48717;55.556;37.816;2023-01-27T12:51:04;99844.81;;;-3.65;95.43
62655;BME280;48717;55.556;37.816;2023-01-27T12:53:32;99814.38;;;-3.87;95.61
62655;BME280;48717;55.556;37.816;2023-01-27T12:58:39;99842.00;;;-3.70;95.79
62655;BME280;48717;55.556;37.816;2023-01-27T13:01:35;99834.72;;;-3.77;96.13
62655;BME280;48717;55.556;37.816;2023-01-27T13:04:19;99837.00;;;-3.67;96.49
62655;BME280;48717;55.556;37.816;2023-01-27T13:06:50;99801.50;;;-3.87;96.29
62655;BME280;48717;55.556;37.816;2023-01-27T13:09:24;99837.00;;;-3.67;96.39
62655;BME280;48717;55.556;37.816;2023-01-27T13:11:56;99833.13;;;-3.75;95.85
62655;BME280;48717;55.556;37.816;2023-01-27T13:14:28;99830.88;;;-3.69;95.83
62655;BME280;48717;55.556;37.816;2023-01-27T13:16:57;99821.81;;;-3.77;96.78
62655;BME280;48717;55.556;37.816;2023-01-27T13:19:45;99848.53;;;-3.60;96.01
62655;BME280;48717;55.556;37.816;2023-01-27T13:22:17;99856.47;;;-3.57;96.59
62655;BME280;48717;55.556;37.816;2023-01-27T13:24:48;99853.63;;;-3.61;95.41
62655;BME280;48717;55.556;37.816;2023-01-27T13:27:19;99848.75;;;-3.72;96.05
62655;BME280;48717;55.556;37.816;2023-01-27T13:29:58;99833.28;;;-3.72;95.56
62655;BME280;48717;55.556;37.816;2023-01-27T13:32:31;99858.50;;;-3.66;96.78
62655;BME280;48717;55.556;37.816;2023-01-27T13:35:09;99862.78;;;-3.67;96.57
62655;BME280;48717;55.556;37.816;2023-01-27T13:37:44;99864.56;;;-3.65;95.98
62655;BME280;48717;55.556;37.816;2023-01-27T13:40:19;99860.47;;;-3.62;96.75
62655;BME280;48717;55.556;37.816;2023-01-27T13:45:53;99862.94;;;-3.63;96.82
62655;BME280;48717;55.556;37.816;2023-01-27T13:48:28;99848.41;;;-3.78;96.38
62655;BME280;48717;55.556;37.816;2023-01-27T13:51:03;99838.09;;;-3.78;96.52
62655;BME280;48717;55.556;37.816;2023-01-27T13:53:32;99875.41;;;-3.56;96.74
62655;BME280;48717;55.556;37.816;2023-01-27T13:56:21;99850.59;;;-3.69;96.31
62655;BME280;48717;55.556;37.816;2023-01-27T14:07:42;99864.00;;;-3.60;96.69
62655;BME280;48717;55.556;37.816;2023-01-27T14:16:04;99883.22;;;-3.55;96.79
62655;BME280;48717;55.556;37.816;2023-01-27T14:18:36;99875.22;;;-3.59;96.37
62655;BME280;48717;55.556;37.816;2023-01-27T14:26:19;99897.78;;;-3.55;96.96
62655;BME280;48717;55.556;37.816;2023-01-27T14:40:30;99908.28;;;-3.52;96.68
62655;BME280;48717;55.556;37.816;2023-01-27T14:45:32;99918.41;;;-3.55;97.73
62655;BME280;48717;55.556;37.816;2023-01-27T14:48:24;99897.97;;;-3.52;98.18
62655;BME280;48717;55.556;37.816;2023-01-27T14:51:07;99913.44;;;-3.52;96.90
62655;BME280;48717;55.556;37.816;2023-01-27T15:04:59;99918.84;;;-3.47;97.26
62655;BME280;48717;55.556;37.816;2023-01-27T15:10:19;99928.19;;;-3.49;97.93
62655;BME280;48717;55.556;37.816;2023-01-27T15:12:54;99927.19;;;-3.51;97.64
62655;BME280;48717;55.556;37.816;2023-01-27T15:25:32;99929.34;;;-3.44;98.40
62655;BME280;48717;55.556;37.816;2023-01-27T15:28:03;99939.75;;;-3.43;99.21
62655;BME280;48717;55.556;37.816;2023-01-27T15:30:33;99939.13;;;-3.38;98.66
62655;BME280;48717;55.556;37.816;2023-01-27T15:46:51;99931.53;;;-3.35;98.82
62655;BME280;48717;55.556;37.816;2023-01-27T15:49:27;99939.91;;;-3.39;98.75
62655;BME280;48717;55.556;37.816;2023-01-27T15:52:07;99939.13;;;-3.38;98.54
62655;BME280;48717;55.556;37.816;2023-01-27T15:54:39;99939.22;;;-3.37;98.29
62655;BME280;48717;55.556;37.816;2023-01-27T15:57:23;99936.69;;;-3.35;99.16
62655;BME280;48717;55.556;37.816;2023-01-27T15:59:52;99913.25;;;-3.55;99.12